Hlavní strana
METAR-TAF:

METAR-TAF

Letiště :

Brjansk, Rusko

zeměpisná šířka: 53-15N, zeměpisná délka: 034-19E, výška: 217 m

Aktuální stav počasí

Zpráva byla vytvořena před 50 minutami, v 04:00 UTC
Západní vítr 8 kt
Teplota -1°C
Vlhkost vzduchu 80%
Tlak 1026 hPa
Viditelnost 10 km a více
Žádná oblačnost pod 1500 m, nevyskytují se cumulonimby.

METAR: UUBP 050400Z 27004MPS CAVOK M01/M04 Q1026 R16/CLRD70 NOSIG RMK QFE751/1001

Čas: 07:50 (04:50 UTC)

Předpověď počasí

Zpráva byla vytvořena před 14 hodinami a 53 minutami, v 13:57 UTC
Předpověď platná od 04 v 15 UTC do 04 v 24 UTC
Severozápadní vítr 10 kt
Viditelnost 10 km a více
Oblačno až skoro zataženo ve výšce 4000 ft
Změna
od 04 v 15 UTC do 04 v 17 UTC
Západojihozápadní vítr 10 kt

TAF: UUBP 041357Z 0415/0424 31005MPS 9999 BKN040 BECMG 0415/0417 24005MPS

Stav a předpovědi počasí z více než 4 000 letišť (zprávy METAR a TAF).

Červené a žluté tečky na mapě představují dostupné meteorologické stanice.

Když kurzor umístíte na tečku, zobrazí se název stanice.

Pak kliknutím zobrazíte stav a předpověď počasí.

Chcete-li změnit mapu, kliknutím na zelené tlačítko se znaménkem +mapu přiblížíte, kliknutím na zelené tlačítko se znaménkem – mapu oddálíte a kliknutím na zelené šipky přejdete na sousední mapy.


METAR-TAF: